• Join FlightAware (Why Join?)
  • Login
  • US Flag 
10:08AM EDT


 

Airport Tracker/Info


-or-


 

Live Flight TrackerFlight Track Log ✈ NLY8822 ✈ 24-Apr-2013 ✈ LOWW / VIE - LIMC / MXP

Flight Track Log - Related Links

Times and Time Zones

All times are in EDT time to prevent confusion due to time zone crossing. See the NLY8822 flight status page for this flight to view local times or setup timezone preferences in your user account.

Time Position Orientation Groundspeed Altitude Reporting Facility
EDT Latitude Longitude Course Direction KTS MPH feet Rate Location/Type
12:39AM 48.1180 16.5490 292° West 140 161 800  Level FlightAware
12:39AM 48.1130 16.5290 249° West 160 184 1,900 2,700 Climbing FlightAware
12:40AM 48.1020 16.5110 228° Southwest 182 209 2,600 2,040 Climbing FlightAware
12:40AM 48.0770 16.4730 225° Southwest 256 295 3,600 2,640 Climbing FlightAware
12:41AM 48.0470 16.4440 213° Southwest 267 307 5,500 4,200 Climbing FlightAware
12:41AM 48.0170 16.4160 212° Southwest 255 293 7,800 4,800 Climbing FlightAware
12:41AM 48.0060 16.4000 224° Southwest 254 292 8,700 3,840 Climbing FlightAware
12:41AM 47.9980 16.3830 235° Southwest 262 302 9,400 3,000 Climbing FlightAware
12:42AM 47.9710 16.3210 237° Southwest 295 339 11,200 2,640 Climbing FlightAware
12:43AM 47.9310 16.2290 237° Southwest 332 382 13,400 2,700 Climbing FlightAware
12:44AM 47.9000 16.1580 237° Southwest 349 402 15,100 2,700 Climbing FlightAware
12:44AM 47.8530 16.0540 236° Southwest 366 421 17,300 2,700 Climbing FlightAware
12:45AM 47.8190 15.9760 237° Southwest 380 437 19,000 2,460 Climbing FlightAware
12:46AM 47.7820 15.8930 236° Southwest 391 450 20,400 2,400 Climbing FlightAware
12:46AM 47.7410 15.8000 237° Southwest 397 457 22,200 2,400 Climbing FlightAware
12:47AM 47.7000 15.7080 237° Southwest 413 475 23,600 2,040 Climbing FlightAware
12:48AM 47.6460 15.5880 236° Southwest 424 488 25,300 1,920 Climbing FlightAware
12:49AM 47.5920 15.4670 237° Southwest 445 512 26,700 1,800 Climbing FlightAware
12:49AM 47.5480 15.3700 236° Southwest 444 511 27,900 1,920 Climbing FlightAware
12:50AM 47.5040 15.2730 236° Southwest 446 513 29,300 2,100 Climbing FlightAware
12:51AM 47.4500 15.1540 236° Southwest 446 513 30,900 1,920 Climbing FlightAware
12:51AM 47.4160 15.0770 237° Southwest 448 516 31,900 1,680 Climbing FlightAware
12:52AM 47.3680 14.9250 245° Southwest 450 518 33,300 1,380 Climbing FlightAware
12:53AM 47.3480 14.8320 252° West 451 519 33,900 480 Climbing FlightAware
12:53AM 47.3180 14.6800 254° West 442 509 34,000 60 Climbing FlightAware
12:54AM 47.2940 14.5650 253° West 444 511 34,000  Level FlightAware
12:55AM 47.2710 14.4500 254° West 446 513 34,000  Level FlightAware
12:55AM 47.2440 14.3200 253° West 447 514 34,000  Level FlightAware
12:56AM 47.2190 14.1980 253° West 448 516 34,000  Level FlightAware
12:57AM 47.1870 14.0460 253° West 448 516 34,000  Level FlightAware
12:58AM 47.1560 13.8970 253° West 447 514 34,000  Level FlightAware
12:59AM 47.1320 13.7810 253° West 448 516 34,000  Level FlightAware
12:59AM 47.1060 13.6620 252° West 448 516 34,000  Level FlightAware
01:00AM 47.0790 13.5320 253° West 448 516 34,000  Level FlightAware
01:01AM 47.0540 13.4200 252° West 446 513 34,000  Level FlightAware
01:01AM 47.0260 13.2900 253° West 447 514 34,000  Level FlightAware
01:02AM 47.0000 13.1700 252° West 447 514 34,000  Level FlightAware
01:03AM 46.9750 13.0530 253° West 448 516 34,000  Level FlightAware
01:03AM 46.9460 12.9230 252° West 447 514 34,000  Level FlightAware
01:04AM 46.9210 12.8090 252° West 447 514 34,000  Level FlightAware
01:05AM 46.8920 12.6790 252° West 448 516 34,000  Level FlightAware
01:06AM 46.8660 12.5630 252° West 447 514 34,000  Level FlightAware
01:06AM 46.8400 12.4460 252° West 446 513 34,000  Level FlightAware
01:07AM 46.8120 12.3230 252° West 450 518 34,000  Level FlightAware
01:08AM 46.7770 12.2060 246° West 450 518 34,000  Level FlightAware
01:08AM 46.7360 12.0840 244° Southwest 449 517 34,000  Level FlightAware
01:09AM 46.6980 11.9740 243° Southwest 450 518 34,000  Level FlightAware
01:10AM 46.6630 11.8700 244° Southwest 450 518 34,000  Level FlightAware
01:10AM 46.6190 11.7420 243° Southwest 451 519 34,000  Level FlightAware
01:11AM 46.5810 11.6320 243° Southwest 451 519 34,000  Level FlightAware
01:12AM 46.5390 11.5090 244° Southwest 451 519 34,000  Level FlightAware
01:13AM 46.5010 11.4010 243° Southwest 452 520 34,000  Level FlightAware
01:13AM 46.4620 11.2900 243° Southwest 451 519 34,000  Level FlightAware
01:14AM 46.4200 11.1700 243° Southwest 450 518 34,000  Level FlightAware
01:15AM 46.3820 11.0600 243° Southwest 451 519 34,000  Level FlightAware
01:15AM 46.3440 10.9520 243° Southwest 456 525 34,000 -480 Level FlightAware
01:16AM 46.3000 10.8280 243° Southwest 454 522 33,400 -720 Descending FlightAware
01:17AM 46.2610 10.7210 242° Southwest 459 528 33,000 -300 Descending FlightAware
01:17AM 46.2180 10.6020 242° Southwest 460 529 33,000 -240 Level FlightAware
01:18AM 46.1780 10.4890 243° Southwest 458 527 32,700 -1,320 Descending FlightAware
01:19AM 46.1390 10.3810 243° Southwest 460 529 31,300 -2,280 Descending FlightAware
01:20AM 46.0940 10.2580 242° Southwest 460 529 29,500 -1,680 Descending FlightAware
01:20AM 46.0550 10.1510 242° Southwest 462 532 29,000 -1,200 Descending FlightAware
01:21AM 46.0160 10.0400 243° Southwest 458 527 27,900 -1,440 Descending FlightAware
01:22AM 45.9750 9.9270 242° Southwest 427 491 27,000 -1,500 Descending FlightAware
01:22AM 45.9400 9.8280 243° Southwest 407 468 25,800 -1,440 Descending FlightAware
01:23AM 45.9030 9.7260 242° Southwest 390 449 25,000 -1,140 Descending FlightAware
01:24AM 45.8690 9.6310 243° Southwest 372 428 24,200 -2,280 Descending FlightAware
01:24AM 45.8310 9.5250 243° Southwest 396 456 21,800 -3,120 Descending FlightAware
01:25AM 45.7970 9.4320 242° Southwest 406 467 19,800 -3,120 Descending FlightAware
01:26AM 45.7620 9.3340 243° Southwest 413 475 17,700 -3,480 Descending FlightAware
01:27AM 45.7220 9.2280 242° Southwest 427 491 14,900 -3,900 Descending FlightAware
01:27AM 45.6830 9.1800 221° Southwest 421 484 13,200 -3,360 Descending FlightAware
01:28AM 45.6060 9.1370 201° Southwest 392 451 11,000 -3,180 Descending FlightAware
01:28AM 45.5460 9.1040 201° Southwest 386 444 8,700 -2,880 Descending FlightAware
01:29AM 45.4710 9.0630 201° Southwest 350 403 7,000 -2,100 Descending FlightAware
01:30AM 45.4350 9.0430 201° Southwest 331 381 6,300 -2,100 Descending FlightAware
01:30AM 45.3870 9.0170 201° Southwest 319 367 5,100 -1,560 Descending FlightAware
01:30AM 45.3640 9.0040 202° Southwest 302 348 5,000 -600 Descending FlightAware
01:31AM 45.3390 8.9470 238° Southwest 268 308 4,600 -840 Descending FlightAware
01:31AM 45.3360 8.9070 264° West 264 304 4,200 -660 Descending FlightAware
01:32AM 45.3520 8.8640 298° West 229 264 4,000 -540 Descending FlightAware
01:32AM 45.3630 8.8500 318° Northwest 222 255 3,800 -840 Descending FlightAware
01:33AM 45.3860 8.8240 322° Northwest 212 244 3,400 -960 Descending FlightAware
01:33AM 45.3970 8.8100 318° Northwest 211 243 3,100 -960 Descending FlightAware
01:33AM 45.4210 8.7840 323° Northwest 206 237 2,700 -600 Descending FlightAware
01:34AM 45.4450 8.7740 344° North 202 232 2,600 -120 Descending FlightAware
01:34AM 45.4720 8.7670 350° North 201 231 2,600  Level FlightAware
01:35AM 45.4930 8.7610 349° North 191 220 2,600 -480 Level FlightAware
01:35AM 45.5190 8.7540 349° North 185 213 2,200 -900 Descending FlightAware
01:36AM 45.5440 8.7470 349° North 170 196 1,700 -1,020 Descending FlightAware
01:36AM 45.5620 8.7420 349° North 152 175 1,300 -780 Descending FlightAware
01:37AM 45.5800 8.7370 349° North 133 153 1,000 -600 Descending FlightAware
01:37AM 45.5930 8.7330 348° North 126 145 800 -420 Descending FlightAware
01:38AM 45.6140 8.7270 349° North 125 144 600 -300 Descending FlightAware
01:40AM 45.6306 8.7281 North  Level Estimated
01:41AM 45.6306 8.7281 170° South  Level Estimated
01:42AM 45.6306 8.7281 170° South  Level Estimated
01:43AM 45.6306 8.7281 170° South  Level Estimated
01:44AM 45.6306 8.7281 170° South  Level Estimated
01:45AM 45.6306 8.7281 170° South  Level Estimated